Time;durP1;ratioP1;P1;durP2;ratioP2;P2;SDS_P1;SDS_P2;PMS_P1;PMS_P2;Temp;Humidity;BMP_temperature;BMP_pressure;BME280_temperature;BME280_humidity;BME280_pressure;Samples;Min_cycle;Max_cycle;Signal;HPM_P1;HPM_P2
2022/01/05 00:01:52;;;;;;;11.00;4.07;;;;;;;8.95;68.54;98546.97;4936970;29;20208;-91
2022/01/05 00:04:19;;;;;;;8.20;3.47;;;;;;;8.91;67.80;98553.31;4936871;29;20183;-91
2022/01/05 00:06:46;;;;;;;12.07;3.83;;;;;;;8.70;67.33;98534.41;4920281;29;20207;-91
2022/01/05 00:09:14;;;;;;;7.70;3.67;;;;;;;8.62;67.39;98545.28;4937000;29;20292;-91
2022/01/05 00:11:41;;;;;;;9.23;4.00;;;;;;;8.54;67.93;98547.47;4919862;29;20189;-91
2022/01/05 00:14:08;;;;;;;7.40;3.97;;;;;;;8.45;67.74;98542.75;4936837;29;20182;-92
2022/01/05 00:16:35;;;;;;;10.53;3.47;;;;;;;8.41;68.21;98538.59;4937494;29;20190;-90
2022/01/05 00:19:02;;;;;;;8.03;4.23;;;;;;;8.54;67.55;98539.63;4938109;29;20219;-91
2022/01/05 00:21:29;;;;;;;8.93;3.70;;;;;;;8.66;67.37;98540.75;4936619;29;20192;-90
2022/01/05 00:23:56;;;;;;;5.77;2.83;;;;;;;8.60;67.73;98541.06;4936544;29;20193;-91
2022/01/05 00:26:25;;;;;;;6.93;2.70;;;;;;;8.39;68.13;98542.22;4936216;29;20181;-91
2022/01/05 00:28:52;;;;;;;5.03;2.80;;;;;;;8.17;69.38;98539.03;4936764;29;20214;-90
2022/01/05 00:31:22;;;;;;;8.13;3.10;;;;;;;8.20;69.07;98536.25;4942048;29;20185;-91
2022/01/05 00:33:50;;;;;;;6.57;3.67;;;;;;;8.16;69.55;98542.56;4936502;29;20268;-90
2022/01/05 00:36:17;;;;;;;6.63;3.30;;;;;;;8.15;69.28;98552.13;4920880;29;20272;-90
2022/01/05 00:38:45;;;;;;;12.63;4.97;;;;;;;8.19;69.33;98539.78;4936330;29;20209;-90
2022/01/05 00:41:12;;;;;;;6.57;3.03;;;;;;;8.20;68.68;98537.06;4936461;29;20249;-91
2022/01/05 00:43:40;;;;;;;6.90;3.37;;;;;;;8.21;68.70;98546.59;4943618;29;20187;-90
2022/01/05 00:46:07;;;;;;;4.80;3.17;;;;;;;8.25;68.36;98558.59;4954769;29;20193;-90
2022/01/05 00:48:35;;;;;;;6.03;3.43;;;;;;;8.26;68.48;98551.59;4938477;29;20237;-90
2022/01/05 00:51:03;;;;;;;6.20;2.77;;;;;;;8.14;68.15;98550.47;4935973;29;20601;-90
2022/01/05 00:53:30;;;;;;;5.73;2.57;;;;;;;8.14;67.85;98562.69;4937092;29;20178;-90
2022/01/05 00:55:57;;;;;;;8.63;2.90;;;;;;;8.03;68.42;98561.47;4930375;29;20238;-90
2022/01/05 00:58:23;;;;;;;5.10;2.53;;;;;;;7.90;70.38;98554.34;4916927;29;20182;-89
2022/01/05 01:00:50;;;;;;;6.63;3.07;;;;;;;7.86;70.76;98551.03;4915996;29;20261;-89
2022/01/05 01:03:17;;;;;;;6.17;1.93;;;;;;;7.87;71.34;98544.91;4932950;29;20193;-89
2022/01/05 01:05:44;;;;;;;8.50;3.23;;;;;;;7.89;71.47;98537.84;4935388;29;20186;-90
2022/01/05 01:08:11;;;;;;;5.30;2.17;;;;;;;7.94;72.18;98541.06;4924613;29;20666;-90
2022/01/05 01:10:38;;;;;;;7.33;2.80;;;;;;;7.68;73.83;98541.53;4916636;29;20190;-90
2022/01/05 01:13:05;;;;;;;5.87;2.90;;;;;;;7.88;73.38;98545.75;4933430;29;20190;-89
2022/01/05 01:15:32;;;;;;;5.53;2.40;;;;;;;7.93;73.03;98548.97;4917152;29;20181;-90
2022/01/05 01:17:58;;;;;;;5.23;2.63;;;;;;;8.00;72.62;98553.78;4918489;29;20178;-90
2022/01/05 01:20:25;;;;;;;5.83;2.80;;;;;;;8.13;70.91;98547.91;4899954;29;20202;-91
2022/01/05 01:22:52;;;;;;;8.80;2.77;;;;;;;7.99;70.17;98546.88;4916722;29;20185;-90
2022/01/05 01:25:19;;;;;;;8.23;2.70;;;;;;;8.11;69.99;98531.50;4920027;29;20178;-90
2022/01/05 01:27:45;;;;;;;6.13;3.20;;;;;;;8.14;70.24;98547.00;4933636;29;20340;-90
2022/01/05 01:30:12;;;;;;;5.50;3.13;;;;;;;8.17;70.74;98536.41;4928365;29;20193;-90
2022/01/05 01:32:39;;;;;;;6.63;2.80;;;;;;;8.07;70.71;98549.94;4902611;29;20612;-90
2022/01/05 01:35:06;;;;;;;7.93;3.17;;;;;;;8.03;71.13;98537.13;4922163;29;20205;-90
2022/01/05 01:37:33;;;;;;;4.50;2.50;;;;;;;8.08;71.08;98537.72;4930831;29;20173;-90
2022/01/05 01:40:00;;;;;;;5.33;2.23;;;;;;;8.05;71.59;98530.91;4911912;29;20190;-91
2022/01/05 01:42:27;;;;;;;4.93;1.90;;;;;;;8.03;70.95;98529.31;4940155;29;20240;-90
2022/01/05 01:44:54;;;;;;;6.10;2.77;;;;;;;7.95;71.73;98532.31;4934536;29;20193;-90
2022/01/05 01:47:21;;;;;;;10.00;2.63;;;;;;;7.66;72.35;98524.28;4937013;29;20198;-91
2022/01/05 01:49:47;;;;;;;5.27;1.73;;;;;;;7.52;72.67;98521.53;4917722;29;20186;-91
2022/01/05 01:52:14;;;;;;;7.63;1.93;;;;;;;7.54;73.55;98517.06;4916631;29;20220;-91
2022/01/05 01:54:41;;;;;;;5.47;1.90;;;;;;;7.78;72.88;98510.63;4917564;29;20186;-91
2022/01/05 01:57:07;;;;;;;5.47;2.77;;;;;;;7.97;72.17;98500.91;4918424;29;20226;-90
2022/01/05 01:59:35;;;;;;;3.40;1.70;;;;;;;8.05;72.08;98510.03;4911924;29;20240;-90
2022/01/05 02:02:02;;;;;;;3.70;1.50;;;;;;;7.85;72.04;98505.00;4916556;29;20262;-90
2022/01/05 02:04:29;;;;;;;3.27;1.53;;;;;;;7.80;72.14;98491.38;4916515;29;20186;-91
2022/01/05 02:06:56;;;;;;;6.93;2.50;;;;;;;7.72;72.55;98496.13;4916210;29;20567;-90
2022/01/05 02:09:23;;;;;;;4.00;2.03;;;;;;;7.57;72.63;98483.88;4915359;29;20178;-90
2022/01/05 02:11:50;;;;;;;5.00;2.20;;;;;;;7.54;72.88;98491.84;4935111;29;20633;-90
2022/01/05 02:14:16;;;;;;;3.83;2.10;;;;;;;7.43;73.52;98486.31;4934406;29;20555;-91
2022/01/05 02:16:44;;;;;;;3.47;1.87;;;;;;;7.45;73.72;98479.25;4937524;29;20178;-90
2022/01/05 02:19:13;;;;;;;5.93;2.57;;;;;;;7.53;73.18;98479.72;4925732;29;20187;-90
2022/01/05 02:21:42;;;;;;;3.80;2.20;;;;;;;7.65;72.76;98481.69;4903719;29;20178;-91
2022/01/05 02:24:11;;;;;;;5.63;1.80;;;;;;;7.66;73.16;98491.22;4932380;29;20190;-90
2022/01/05 02:26:38;;;;;;;4.50;1.97;;;;;;;7.55;73.04;98484.88;4938976;29;20348;-91
2022/01/05 02:29:06;;;;;;;5.87;1.87;;;;;;;7.35;73.50;98483.25;4938994;29;20257;-90
2022/01/05 02:31:33;;;;;;;7.13;2.33;;;;;;;7.56;73.16;98490.00;4938010;29;20178;-90
2022/01/05 02:34:00;;;;;;;5.47;2.23;;;;;;;7.48;72.67;98486.94;4924308;29;20260;-90
2022/01/05 02:36:27;;;;;;;4.77;1.60;;;;;;;7.53;72.51;98486.69;4919654;29;20630;-90
2022/01/05 02:38:54;;;;;;;3.90;1.40;;;;;;;7.53;72.67;98479.72;4928041;29;20189;-90
2022/01/05 02:41:21;;;;;;;2.40;1.70;;;;;;;7.48;72.78;98478.25;4938452;29;20633;-90
2022/01/05 02:43:48;;;;;;;4.70;1.67;;;;;;;7.55;73.46;98480.47;4908870;29;20266;-90
2022/01/05 02:46:18;;;;;;;5.50;2.23;;;;;;;7.71;73.29;98483.16;4919357;29;20217;-91
2022/01/05 02:48:49;;;;;;;2.93;1.17;;;;;;;7.68;72.19;98478.94;4911880;29;20209;-90
2022/01/05 02:51:16;;;;;;;4.27;2.17;;;;;;;7.62;73.00;98481.03;4919566;29;20166;-90
2022/01/05 02:53:43;;;;;;;4.00;1.83;;;;;;;7.55;73.28;98474.44;4925149;29;20189;-90
2022/01/05 02:56:11;;;;;;;6.77;2.60;;;;;;;7.36;75.07;98472.75;4942023;29;20217;-90
2022/01/05 02:58:37;;;;;;;3.07;1.63;;;;;;;7.56;74.68;98471.75;4957553;29;20185;-90
2022/01/05 03:01:05;;;;;;;4.40;1.60;;;;;;;7.40;75.67;98476.91;4940920;29;20188;-90
2022/01/05 03:03:31;;;;;;;2.70;1.60;;;;;;;7.58;75.40;98474.25;4947220;28;20174;-90
2022/01/05 03:05:58;;;;;;;3.70;1.63;;;;;;;7.79;74.59;98463.59;4938379;29;20645;-91
2022/01/05 03:08:25;;;;;;;3.73;1.33;;;;;;;7.82;73.53;98453.00;4923332;29;20198;-90
2022/01/05 03:10:52;;;;;;;3.00;1.40;;;;;;;7.87;73.53;98461.41;4951643;29;20204;-90
2022/01/05 03:13:19;;;;;;;2.90;1.57;;;;;;;7.93;73.18;98455.88;4931671;29;20193;-91
2022/01/05 03:15:46;;;;;;;3.23;1.33;;;;;;;7.75;73.83;98459.47;4957066;29;20228;-90
2022/01/05 03:18:13;;;;;;;4.80;2.03;;;;;;;7.53;73.86;98458.88;4957080;29;20647;-90
2022/01/05 03:20:40;;;;;;;16.70;2.70;;;;;;;7.61;73.70;98467.13;4956227;29;20223;-90
2022/01/05 03:23:07;;;;;;;6.43;1.97;;;;;;;7.60;74.00;98462.00;4936226;29;20186;-90
2022/01/05 03:25:34;;;;;;;1.87;1.30;;;;;;;7.69;73.96;98462.38;4955811;29;20177;-90
2022/01/05 03:28:01;;;;;;;5.50;2.50;;;;;;;7.55;73.16;98464.84;4939677;29;20600;-89
2022/01/05 03:30:30;;;;;;;5.33;2.30;;;;;;;7.59;72.92;98470.75;4956831;29;20177;-90
2022/01/05 03:35:37;;;;;;;2.83;1.40;;;;;;;7.67;72.49;98453.78;4940698;29;20583;-90
2022/01/05 03:38:05;;;;;;;3.17;1.70;;;;;;;7.35;73.26;98452.81;4920845;29;20181;-90
2022/01/05 03:40:34;;;;;;;2.90;1.50;;;;;;;7.50;73.57;98453.81;4951357;29;20173;-91
2022/01/05 03:43:02;;;;;;;3.40;1.30;;;;;;;7.73;72.67;98443.03;4928035;29;20178;-90
2022/01/05 03:45:29;;;;;;;2.43;1.37;;;;;;;7.55;73.07;98443.97;4956286;29;20663;-90
2022/01/05 03:47:55;;;;;;;2.27;1.20;;;;;;;7.41;73.52;98447.31;4956381;29;20213;-90
2022/01/05 03:50:22;;;;;;;5.13;1.83;;;;;;;7.32;74.21;98452.13;4940201;29;20216;-90
2022/01/05 03:52:49;;;;;;;3.07;1.77;;;;;;;7.23;74.74;98442.19;4928748;29;20641;-90
2022/01/05 03:55:16;;;;;;;14.37;1.93;;;;;;;7.33;74.54;98443.41;4937307;29;20520;-89
2022/01/05 03:57:43;;;;;;;6.43;1.87;;;;;;;7.32;74.45;98447.75;4920656;29;20217;-89
2022/01/05 04:00:10;;;;;;;3.10;1.80;;;;;;;7.41;74.31;98439.50;4920650;29;20174;-89
2022/01/05 04:02:37;;;;;;;5.10;2.00;;;;;;;7.54;74.10;98439.69;4937527;29;20260;-89
2022/01/05 04:05:04;;;;;;;2.87;1.70;;;;;;;7.58;73.83;98454.25;4920012;29;20926;-89
2022/01/05 04:07:31;;;;;;;3.77;1.87;;;;;;;7.64;73.37;98451.34;4936869;29;20209;-90
2022/01/05 04:09:57;;;;;;;6.83;2.77;;;;;;;7.55;71.88;98449.19;4937138;29;20173;-89
2022/01/05 04:12:24;;;;;;;20.57;6.80;;;;;;;7.47;71.51;98434.88;4920121;29;20366;-90
2022/01/05 04:14:51;;;;;;;8.40;4.10;;;;;;;7.44;70.90;98434.09;4937174;29;20192;-90
2022/01/05 04:17:18;;;;;;;12.33;4.20;;;;;;;7.48;70.35;98445.22;4936930;29;20198;-89
2022/01/05 04:19:44;;;;;;;8.87;4.27;;;;;;;7.49;69.97;98443.47;4944609;29;20209;-89
2022/01/05 04:22:11;;;;;;;10.40;3.90;;;;;;;7.49;69.50;98433.03;4956372;29;20179;-90
2022/01/05 04:24:38;;;;;;;11.63;4.00;;;;;;;7.52;68.97;98454.56;4955001;29;20276;-89
2022/01/05 04:27:05;;;;;;;7.50;3.90;;;;;;;7.41;69.20;98449.06;4955910;29;20200;-89
2022/01/05 04:29:32;;;;;;;4.27;2.40;;;;;;;7.38;68.92;98446.63;4956260;29;20219;-89
2022/01/05 04:32:00;;;;;;;8.77;4.07;;;;;;;7.39;68.47;98456.09;4949440;29;20220;-89
2022/01/05 04:34:27;;;;;;;6.57;3.40;;;;;;;7.31;68.84;98455.66;4940037;29;20220;-89
2022/01/05 04:36:54;;;;;;;12.60;4.50;;;;;;;7.29;69.05;98452.28;4936699;29;20174;-90
2022/01/05 04:39:21;;;;;;;8.67;4.03;;;;;;;7.33;68.87;98459.03;4936024;29;20177;-89
2022/01/05 04:41:48;;;;;;;15.33;4.07;;;;;;;7.30;68.96;98469.63;4919932;29;20181;-89
2022/01/05 04:44:14;;;;;;;5.67;2.00;;;;;;;7.27;69.55;98456.72;4939667;29;20661;-89
2022/01/05 04:46:41;;;;;;;10.73;3.37;;;;;;;6.85;70.90;98464.03;4953064;29;20198;-89
2022/01/05 04:49:08;;;;;;;5.40;1.60;;;;;;;6.74;71.90;98467.16;4936473;29;20185;-89
2022/01/05 04:51:35;;;;;;;5.17;2.53;;;;;;;6.52;73.41;98471.72;4935205;29;20276;-89
2022/01/05 04:54:02;;;;;;;2.73;1.60;;;;;;;6.45;73.81;98473.75;4938335;29;20272;-89
2022/01/05 04:56:28;;;;;;;5.23;1.93;;;;;;;6.33;74.07;98468.25;4954956;29;20268;-90
2022/01/05 04:58:56;;;;;;;4.40;1.83;;;;;;;6.55;73.94;98474.19;4954650;29;20181;-88
2022/01/05 05:01:23;;;;;;;5.30;1.20;;;;;;;6.60;73.72;98470.41;4954632;29;20196;-89
2022/01/05 05:03:50;;;;;;;11.40;2.83;;;;;;;6.53;74.09;98471.63;4938295;29;20208;-89
2022/01/05 05:06:17;;;;;;;4.40;2.33;;;;;;;6.68;73.90;98473.50;4955137;29;20184;-88
2022/01/05 05:08:44;;;;;;;4.20;2.63;;;;;;;6.65;73.42;98473.69;4934101;29;20621;-89
2022/01/05 05:11:10;;;;;;;17.60;3.27;;;;;;;6.77;73.02;98469.63;4934940;29;20189;-89
2022/01/05 05:13:36;;;;;;;8.13;3.03;;;;;;;6.78;72.91;98471.31;4936403;29;20211;-90
2022/01/05 05:16:04;;;;;;;8.73;2.90;;;;;;;6.77;72.49;98472.22;4936183;29;20700;-89
2022/01/05 05:18:30;;;;;;;7.10;3.53;;;;;;;6.84;72.52;98471.00;4936039;29;20649;-89
2022/01/05 05:20:57;;;;;;;4.73;2.83;;;;;;;6.81;72.13;98474.59;4935829;29;20186;-89
2022/01/05 05:23:24;;;;;;;9.20;2.73;;;;;;;6.70;71.63;98473.44;4939393;29;20185;-89
2022/01/05 05:25:51;;;;;;;14.23;5.63;;;;;;;6.72;71.79;98461.19;4949250;29;20184;-89
2022/01/05 05:28:18;;;;;;;13.70;4.73;;;;;;;6.80;71.24;98469.47;4955092;29;20214;-88
2022/01/05 05:30:45;;;;;;;9.23;4.87;;;;;;;6.88;70.61;98479.53;4927176;29;20276;-89
2022/01/05 05:33:11;;;;;;;6.80;2.77;;;;;;;6.78;70.82;98472.16;4935721;29;20266;-89
2022/01/05 05:35:41;;;;;;;13.97;5.33;;;;;;;6.78;70.51;98480.00;4940551;29;20707;-89
2022/01/05 05:38:09;;;;;;;12.73;4.47;;;;;;;6.75;70.26;98487.94;4937886;29;20544;-89
2022/01/05 05:40:35;;;;;;;8.20;4.37;;;;;;;6.68;70.43;98489.13;4946791;29;20262;-89
2022/01/05 05:43:02;;;;;;;7.97;3.80;;;;;;;6.64;70.13;98500.63;4953984;29;20692;-89
2022/01/05 05:45:29;;;;;;;7.87;3.60;;;;;;;6.59;69.71;98492.19;4937828;29;20620;-89
2022/01/05 05:47:56;;;;;;;10.23;4.77;;;;;;;6.69;69.28;98493.44;4937958;29;20677;-89
2022/01/05 05:50:23;;;;;;;5.10;3.30;;;;;;;6.79;69.21;98494.69;4920545;29;20322;-88
2022/01/05 05:52:49;;;;;;;9.80;3.03;;;;;;;6.77;69.12;98501.72;4939505;29;20190;-88
2022/01/05 05:55:16;;;;;;;11.63;4.77;;;;;;;6.64;69.37;98487.59;4946478;29;20177;-88
2022/01/05 05:57:43;;;;;;;8.33;5.13;;;;;;;6.62;68.98;98483.38;4941383;29;20232;-88
2022/01/05 06:00:11;;;;;;;11.73;5.43;;;;;;;6.55;69.66;98485.41;4958459;29;20185;-88
2022/01/05 06:02:38;;;;;;;5.90;3.00;;;;;;;6.51;69.85;98489.09;4941916;29;20193;-89
2022/01/05 06:05:05;;;;;;;12.20;5.30;;;;;;;6.54;69.70;98493.31;4926075;29;20192;-89
2022/01/05 06:07:32;;;;;;;19.17;5.03;;;;;;;6.60;70.07;98491.25;4948365;29;20709;-89
2022/01/05 06:09:59;;;;;;;10.23;3.90;;;;;;;6.68;69.62;98489.13;4940115;29;20664;-89
2022/01/05 06:12:26;;;;;;;6.80;4.03;;;;;;;6.77;68.88;98493.91;4942752;29;20185;-89
2022/01/05 06:14:53;;;;;;;15.23;5.60;;;;;;;6.62;69.54;98485.97;4958503;29;20215;-89
2022/01/05 06:17:20;;;;;;;9.00;4.60;;;;;;;6.42;70.54;98494.69;4958085;29;20628;-89
2022/01/05 06:19:46;;;;;;;5.60;3.20;;;;;;;6.40;71.58;98506.94;4956050;29;20189;-89
2022/01/05 06:22:13;;;;;;;15.27;5.63;;;;;;;6.52;72.03;98506.41;4938875;29;20272;-90
2022/01/05 06:24:42;;;;;;;10.30;4.53;;;;;;;6.57;71.43;98507.03;4941893;29;20192;-89
2022/01/05 06:27:09;;;;;;;5.47;3.17;;;;;;;6.66;71.17;98509.19;4943957;29;20201;-89
2022/01/05 06:29:37;;;;;;;9.20;3.13;;;;;;;6.69;70.97;98508.19;4940271;29;20244;-89
2022/01/05 06:32:05;;;;;;;7.80;3.57;;;;;;;6.62;71.98;98507.66;4957234;29;20271;-89
2022/01/05 06:34:32;;;;;;;8.57;4.23;;;;;;;6.75;71.55;98505.31;4958379;29;20185;-89
2022/01/05 06:36:59;;;;;;;6.63;3.47;;;;;;;7.05;71.51;98505.63;4937294;29;20623;-89
2022/01/05 06:39:25;;;;;;;13.93;5.33;;;;;;;7.33;71.39;98495.53;4942438;29;20185;-90
2022/01/05 06:41:52;;;;;;;14.07;7.07;;;;;;;7.56;70.01;98502.19;4940796;29;20613;-89
2022/01/05 06:44:20;;;;;;;11.73;6.33;;;;;;;7.84;70.08;98487.66;4957655;29;20556;-89
2022/01/05 06:46:47;;;;;;;9.90;5.10;;;;;;;8.62;70.08;98494.81;4942949;29;20596;-89
2022/01/05 06:49:14;;;;;;;20.30;7.53;;;;;;;9.57;67.71;98496.31;4943165;29;20181;-90
2022/01/05 06:51:41;;;;;;;18.40;7.53;;;;;;;10.18;64.33;98497.00;4946094;29;20249;-90
2022/01/05 06:54:08;;;;;;;12.30;6.93;;;;;;;10.40;62.83;98494.72;4938919;29;20659;-90
2022/01/05 06:56:33;;;;;;;12.37;6.77;;;;;;;10.62;61.74;98490.78;4957020;29;20196;-90
2022/01/05 06:58:59;;;;;;;22.07;9.90;;;;;;;10.84;60.39;98483.25;4957247;29;20229;-89
2022/01/05 07:01:26;;;;;;;18.27;9.50;;;;;;;11.16;58.77;98491.66;4939705;29;20621;-89
2022/01/05 07:03:53;;;;;;;24.27;11.00;;;;;;;11.44;57.95;98492.38;4940903;29;20585;-89
2022/01/05 07:06:19;;;;;;;17.43;9.70;;;;;;;11.55;57.54;98489.88;4938346;29;20180;-90
2022/01/05 07:08:46;;;;;;;35.40;12.80;;;;;;;11.62;56.90;98485.06;4953086;29;20217;-90
2022/01/05 07:11:12;;;;;;;28.20;12.80;;;;;;;11.51;55.52;98491.03;4956482;29;20192;-90
2022/01/05 07:13:39;;;;;;;25.50;12.27;;;;;;;11.59;55.62;98488.72;4957668;29;20188;-89
2022/01/05 07:16:06;;;;;;;19.60;9.43;;;;;;;11.99;54.07;98488.69;4952870;28;20592;-91
2022/01/05 07:25:16;;;;;;;23.47;11.43;;;;;;;12.01;54.60;98506.03;4958936;28;20652;-90
2022/01/05 07:27:43;;;;;;;22.30;10.60;;;;;;;11.83;55.32;98504.66;4939921;29;20301;-91
2022/01/05 07:30:11;;;;;;;21.63;10.40;;;;;;;11.40;56.79;98511.88;4927082;29;20213;-91
2022/01/05 07:32:41;;;;;;;28.10;11.33;;;;;;;11.14;58.41;98510.09;4938809;29;20198;-91
2022/01/05 07:35:09;;;;;;;18.63;8.90;;;;;;;10.92;59.54;98513.28;4956288;29;20640;-91
2022/01/05 07:37:36;;;;;;;17.93;7.70;;;;;;;10.71;61.00;98508.56;4948484;29;20571;-91
2022/01/05 07:40:04;;;;;;;13.60;6.63;;;;;;;10.62;61.64;98506.50;4950234;29;20520;-92
2022/01/05 07:42:33;;;;;;;23.63;9.70;;;;;;;10.55;62.78;98515.69;4921159;29;20542;-92
2022/01/05 07:45:03;;;;;;;16.30;7.73;;;;;;;10.55;63.48;98511.28;4955779;29;20181;-92
2022/01/05 07:47:30;;;;;;;20.60;9.07;;;;;;;10.58;64.10;98510.25;4942835;29;20206;-92
2022/01/05 07:49:57;;;;;;;14.63;7.10;;;;;;;10.57;65.30;98508.56;4949104;29;20188;-92
2022/01/05 07:52:23;;;;;;;21.33;7.53;;;;;;;10.47;66.48;98514.41;4936123;29;20217;-92
2022/01/05 07:54:52;;;;;;;11.67;5.40;;;;;;;10.58;66.74;98511.13;4963953;28;20196;-91
2022/01/05 07:57:19;;;;;;;9.17;4.70;;;;;;;10.56;67.71;98512.97;4975813;28;20191;-93
2022/01/05 07:59:46;;;;;;;13.50;7.27;;;;;;;10.53;68.08;98512.34;4942624;28;20209;-92
2022/01/05 08:02:13;;;;;;;18.37;8.17;;;;;;;10.57;68.58;98513.81;4952894;29;20185;-92
2022/01/05 08:04:40;;;;;;;18.03;7.90;;;;;;;10.69;67.94;98515.69;4943005;29;20249;-91
2022/01/05 08:07:06;;;;;;;16.70;8.23;;;;;;;10.64;68.09;98505.47;4936002;29;20600;-93
2022/01/05 08:09:33;;;;;;;17.87;9.00;;;;;;;10.76;68.13;98511.72;4952090;29;20271;-92
2022/01/05 08:12:00;;;;;;;13.03;7.23;;;;;;;10.84;68.45;98512.09;4936872;29;20194;-92
2022/01/05 08:14:27;;;;;;;17.23;9.00;;;;;;;10.86;68.74;98507.56;4941516;29;20216;-92
2022/01/05 08:16:52;;;;;;;17.03;8.13;;;;;;;10.79;69.67;98504.53;4950865;29;20190;-92
2022/01/05 08:19:19;;;;;;;14.13;6.83;;;;;;;10.91;69.89;98513.38;4939464;29;20268;-91
2022/01/05 08:21:45;;;;;;;14.53;7.40;;;;;;;10.94;70.81;98500.91;4937194;29;20197;-91
2022/01/05 08:24:15;;;;;;;21.93;7.63;;;;;;;11.10;71.54;98508.63;4920376;29;20193;-92
2022/01/05 08:26:42;;;;;;;20.93;7.90;;;;;;;11.17;71.31;98509.06;4936583;29;20181;-92
2022/01/05 08:29:11;;;;;;;20.00;8.67;;;;;;;11.20;71.13;98514.13;4945183;29;20208;-93
2022/01/05 08:31:38;;;;;;;20.97;9.70;;;;;;;11.30;71.47;98517.81;4953998;29;20208;-92
2022/01/05 08:34:05;;;;;;;24.17;9.77;;;;;;;11.41;71.34;98526.69;4954593;29;20188;-93
2022/01/05 08:36:31;;;;;;;21.57;9.33;;;;;;;11.62;71.03;98524.41;4937411;29;20193;-91
2022/01/05 08:38:58;;;;;;;10.63;4.97;;;;;;;11.56;69.24;98524.81;4945767;29;20656;-92
2022/01/05 08:41:25;;;;;;;9.83;5.90;;;;;;;11.76;67.78;98523.53;4954487;29;20271;-92
2022/01/05 08:43:54;;;;;;;15.43;5.67;;;;;;;11.86;67.82;98519.34;4938804;29;20181;-91
2022/01/05 08:46:21;;;;;;;12.37;5.83;;;;;;;11.99;66.49;98515.78;4955869;29;20177;-92
2022/01/05 08:48:48;;;;;;;11.87;5.33;;;;;;;12.05;66.11;98514.53;4931165;29;20205;-91
2022/01/05 08:51:15;;;;;;;9.00;4.00;;;;;;;11.75;64.03;98517.44;4936350;29;20281;-91
2022/01/05 08:53:42;;;;;;;9.77;4.80;;;;;;;11.80;63.85;98525.00;4944304;29;20244;-92
2022/01/05 08:56:09;;;;;;;11.37;4.50;;;;;;;11.77;63.95;98519.97;4924119;29;20198;-92
2022/01/05 08:58:34;;;;;;;11.53;4.53;;;;;;;11.93;64.74;98502.22;4942141;29;20236;-92
2022/01/05 09:01:02;;;;;;;12.87;4.33;;;;;;;12.11;64.73;98493.94;4943337;29;20205;-93
2022/01/05 09:03:28;;;;;;;9.67;5.00;;;;;;;12.08;63.63;98495.94;4934520;29;20593;-92
2022/01/05 09:05:55;;;;;;;8.57;4.50;;;;;;;12.18;63.97;98492.59;4951733;29;20252;-92
2022/01/05 09:08:22;;;;;;;17.13;5.57;;;;;;;12.00;64.22;98493.00;4952186;29;20201;-91
2022/01/05 09:10:48;;;;;;;10.37;5.67;;;;;;;12.13;64.00;98488.59;4936262;29;20182;-91
2022/01/05 09:13:16;;;;;;;9.43;4.43;;;;;;;12.24;63.64;98486.88;4935993;29;20197;-92
2022/01/05 09:15:43;;;;;;;11.33;5.73;;;;;;;12.25;63.33;98479.84;4937890;29;20214;-92
2022/01/05 09:18:10;;;;;;;11.20;5.27;;;;;;;12.34;64.88;98477.41;4952859;28;20190;-92
2022/01/05 09:20:36;;;;;;;13.30;4.77;;;;;;;12.51;65.40;98476.22;4973876;28;20191;-92
2022/01/05 09:23:03;;;;;;;12.17;6.13;;;;;;;12.70;64.70;98475.75;4920267;29;20293;-91
2022/01/05 09:25:30;;;;;;;13.97;6.63;;;;;;;12.88;63.38;98477.06;4936409;29;20182;-91
2022/01/05 09:27:57;;;;;;;15.53;6.20;;;;;;;13.02;63.94;98462.91;4935881;29;20193;-92
2022/01/05 09:30:26;;;;;;;12.87;6.23;;;;;;;13.17;61.93;98464.44;4938901;29;20214;-92
2022/01/05 09:32:54;;;;;;;13.70;5.63;;;;;;;13.29;62.43;98453.84;4919980;29;20189;-91
2022/01/05 09:35:23;;;;;;;18.10;8.40;;;;;;;13.49;62.27;98455.00;4934797;29;20186;-92
2022/01/05 09:37:54;;;;;;;17.60;5.93;;;;;;;13.48;61.96;98459.44;4951183;29;20181;-91
2022/01/05 09:43:08;;;;;;;16.50;7.03;;;;;;;13.15;64.08;98461.09;4953237;28;20218;-91
2022/01/05 09:45:47;;;;;;;16.80;7.00;;;;;;;13.24;63.71;98444.63;4957276;28;20199;-92
2022/01/05 09:48:51;;;;;;;25.77;8.57;;;;;;;13.19;64.30;98447.59;4940977;28;20212;-91
2022/01/05 09:51:23;;;;;;;21.73;10.07;;;;;;;13.12;64.77;98443.75;4973965;28;20165;-90
2022/01/05 09:53:51;;;;;;;46.80;21.97;;;;;;;13.19;65.03;98431.81;4932264;29;20676;-90
2022/01/05 09:56:18;;;;;;;59.83;29.57;;;;;;;12.74;65.54;98435.97;4922467;29;20257;-88
2022/01/05 09:58:45;;;;;;;27.97;13.23;;;;;;;12.44;67.42;98429.47;4914918;29;20412;-89
2022/01/05 10:01:12;;;;;;;39.27;12.83;;;;;;;11.62;70.26;98430.78;4934684;29;20197;-89
2022/01/05 10:03:39;;;;;;;32.53;12.20;;;;;;;11.45;72.79;98436.31;4913877;29;20197;-89
2022/01/05 10:06:05;;;;;;;43.13;14.30;;;;;;;11.59;72.62;98425.72;4928916;29;20193;-89
2022/01/05 10:08:33;;;;;;;40.83;16.43;;;;;;;11.60;73.04;98424.81;4928166;29;20202;-90
2022/01/05 10:11:00;;;;;;;29.40;10.97;;;;;;;12.07;72.70;98428.59;4913324;29;20281;-90
2022/01/05 10:13:26;;;;;;;33.33;10.43;;;;;;;12.06;71.13;98426.91;4908606;29;20632;-89
2022/01/05 10:15:54;;;;;;;40.07;12.43;;;;;;;12.31;70.30;98417.22;4899899;29;20274;-88
2022/01/05 10:18:22;;;;;;;37.00;16.77;;;;;;;12.56;69.42;98410.19;4916308;29;20200;-89
2022/01/05 10:21:02;;;;;;;35.77;11.53;;;;;;;12.73;69.18;98410.66;4917161;29;20199;-90
2022/01/05 10:23:47;;;;;;;27.63;11.33;;;;;;;12.86;67.93;98406.19;4916399;29;20171;-90
2022/01/05 10:26:36;;;;;;;25.13;10.73;;;;;;;12.76;68.00;98410.41;4924988;29;20265;-89
2022/01/05 10:29:28;;;;;;;22.87;8.80;;;;;;;13.05;68.04;98407.44;4915744;29;20230;-90
2022/01/05 10:31:56;;;;;;;26.17;10.33;;;;;;;13.18;67.69;98403.00;4914791;29;20198;-89
2022/01/05 10:34:25;;;;;;;28.80;10.30;;;;;;;13.24;67.21;98399.88;4922163;29;20250;-89
2022/01/05 10:36:54;;;;;;;31.93;10.73;;;;;;;13.35;68.73;98394.66;4916860;29;20189;-89
2022/01/05 10:39:32;;;;;;;23.83;10.67;;;;;;;13.59;67.63;98391.94;4927330;29;20193;-93
2022/01/05 10:42:10;;;;;;;25.77;9.67;;;;;;;13.81;66.52;98387.53;4938821;29;20563;-92
2022/01/05 10:44:38;;;;;;;22.50;9.87;;;;;;;13.78;65.92;98385.16;4921984;29;20273;-92
2022/01/05 10:47:05;;;;;;;28.60;10.63;;;;;;;13.97;65.59;98369.59;4939019;29;20228;-92
2022/01/05 10:49:40;;;;;;;23.87;9.27;;;;;;;14.14;64.76;98371.75;4937930;29;20251;-90
2022/01/05 10:52:29;;;;;;;30.70;10.47;;;;;;;14.23;64.80;98371.97;4935331;29;20223;-92
2022/01/05 10:55:08;;;;;;;18.60;9.17;;;;;;;14.35;64.21;98371.03;4922474;29;20230;-91
2022/01/05 10:57:34;;;;;;;20.77;8.73;;;;;;;14.33;64.69;98367.69;4912781;29;20175;-91
2022/01/05 10:59:59;;;;;;;19.53;8.93;;;;;;;14.36;64.82;98367.44;4936280;28;20189;-92
2022/01/05 11:02:31;;;;;;;21.27;9.90;;;;;;;14.43;64.45;98352.78;4949537;28;20203;-91
2022/01/05 11:05:02;;;;;;;20.30;9.13;;;;;;;14.54;63.26;98348.31;4950022;28;20184;-91
2022/01/05 11:07:31;;;;;;;15.13;8.27;;;;;;;14.50;62.55;98343.41;4921256;29;20213;-90
2022/01/05 11:10:20;;;;;;;17.37;7.83;;;;;;;14.54;61.43;98340.41;4947326;29;20189;-92
2022/01/05 11:12:54;;;;;;;19.73;8.53;;;;;;;14.59;62.58;98335.63;4948700;28;20193;-91
2022/01/05 11:15:36;;;;;;;18.17;9.00;;;;;;;14.85;61.70;98333.47;4952461;29;20166;-90
2022/01/05 11:18:21;;;;;;;21.97;8.83;;;;;;;15.04;60.40;98330.97;4951531;29;20177;-90
2022/01/05 11:21:12;;;;;;;21.27;9.23;;;;;;;15.18;59.76;98335.09;4964548;28;20187;-91
2022/01/05 11:23:43;;;;;;;17.17;7.37;;;;;;;15.24;60.10;98334.59;4948047;28;20191;-89
2022/01/05 11:26:10;;;;;;;18.07;7.20;;;;;;;15.17;59.83;98326.31;4956827;29;20227;-90
2022/01/05 11:28:37;;;;;;;21.93;7.80;;;;;;;15.42;59.03;98337.47;4947351;29;20613;-91
2022/01/05 11:31:07;;;;;;;17.20;7.80;;;;;;;15.28;59.19;98330.72;4939045;29;20193;-90
2022/01/05 11:33:34;;;;;;;19.20;9.10;;;;;;;14.90;59.82;98333.09;4921948;29;20692;-89
2022/01/05 11:35:59;;;;;;;15.90;8.07;;;;;;;15.25;59.36;98334.44;4955203;29;20176;-89
2022/01/05 11:38:26;;;;;;;18.77;8.10;;;;;;;15.08;59.33;98335.03;4939798;29;20211;-89
2022/01/05 11:40:58;;;;;;;20.03;7.43;;;;;;;15.20;59.28;98327.88;4943306;29;20189;-90
2022/01/05 11:43:30;;;;;;;13.13;6.60;;;;;;;15.51;58.39;98334.94;4937695;29;20169;-90
2022/01/05 11:45:58;;;;;;;17.93;7.23;;;;;;;15.22;58.94;98329.44;4937375;29;20196;-89
2022/01/05 11:48:40;;;;;;;18.43;8.73;;;;;;;15.34;59.29;98324.91;4937119;29;20798;-90
2022/01/05 11:51:07;;;;;;;13.47;6.27;;;;;;;15.26;59.81;98317.66;4937331;29;20197;-91